createdAt,value
2019-01-16T00:02:18.983Z,6.86
2019-01-16T00:04:52.277Z,6.90
2019-01-16T00:07:22.705Z,6.94
2019-01-16T00:09:55.793Z,6.85
2019-01-16T00:12:29.187Z,6.96
2019-01-16T00:14:59.513Z,7.00
2019-01-16T00:17:29.837Z,6.93
2019-01-16T00:20:00.264Z,6.96
2019-01-16T00:22:46.972Z,7.02
2019-01-16T00:25:32.350Z,7.01
2019-01-16T00:28:02.673Z,7.05
2019-01-16T00:30:48.150Z,7.04
2019-01-16T00:33:30.153Z,7.04
2019-01-16T00:36:00.575Z,7.05
2019-01-16T00:38:30.904Z,7.12
2019-01-16T00:41:01.327Z,7.11
2019-01-16T00:43:49.982Z,7.08
2019-01-16T00:46:32.617Z,7.16
2019-01-16T00:49:03.019Z,7.15
2019-01-16T00:51:33.344Z,7.19
2019-01-16T00:54:12.987Z,7.24
2019-01-16T00:56:59.695Z,7.22
2019-01-16T00:59:45.379Z,7.20
2019-01-16T01:02:15.705Z,7.24
2019-01-16T01:04:58.009Z,7.27
2019-01-16T01:07:46.661Z,7.24
2019-01-16T01:10:17.091Z,7.21
2019-01-16T01:12:59.495Z,7.23
2019-01-16T01:15:32.278Z,7.25
2019-01-16T01:18:02.601Z,7.23
2019-01-16T01:20:32.924Z,7.20
2019-01-16T01:23:03.248Z,7.15
2019-01-16T01:25:39.821Z,7.21
2019-01-16T01:28:13.320Z,7.23
2019-01-16T01:30:43.746Z,7.28
2019-01-16T01:33:19.804Z,7.27
2019-01-16T01:35:50.229Z,7.26
2019-01-16T01:38:23.423Z,7.23
2019-01-16T01:40:56.514Z,7.21
2019-01-16T01:43:26.938Z,7.28
2019-01-16T01:46:12.316Z,7.28
2019-01-16T01:48:42.744Z,7.29
2019-01-16T01:51:13.168Z,7.38
2019-01-16T01:54:01.617Z,7.28
2019-01-16T01:56:40.952Z,7.33
2019-01-16T01:59:29.199Z,7.26
2019-01-16T02:02:02.296Z,7.29
2019-01-16T02:04:38.654Z,7.26
2019-01-16T02:07:21.265Z,7.29
2019-01-16T02:10:00.598Z,7.29
2019-01-16T02:12:36.659Z,7.27
2019-01-16T02:15:25.415Z,7.30
2019-01-16T02:18:01.473Z,7.30
2019-01-16T02:20:31.899Z,7.32
2019-01-16T02:23:08.059Z,7.39
2019-01-16T02:25:38.487Z,7.33
2019-01-16T02:28:14.545Z,7.30
2019-01-16T02:31:01.357Z,7.38
2019-01-16T02:33:50.218Z,7.42
2019-01-16T02:36:32.623Z,7.40
2019-01-16T02:39:17.999Z,7.35
2019-01-16T02:41:57.335Z,7.34
2019-01-16T02:44:27.864Z,7.39
2019-01-16T02:46:58.086Z,7.40
2019-01-16T02:49:31.486Z,7.28
2019-01-16T02:52:10.716Z,7.31
2019-01-16T02:54:46.570Z,7.17
2019-01-16T02:57:16.996Z,7.12
2019-01-16T02:59:49.674Z,7.15
2019-01-16T03:02:22.662Z,7.10
2019-01-16T03:05:05.171Z,7.08
2019-01-16T03:07:47.681Z,7.13
2019-01-16T03:10:23.843Z,7.06
2019-01-16T03:13:03.177Z,7.02
2019-01-16T03:15:39.031Z,7.05
2019-01-16T03:18:15.091Z,6.93
2019-01-16T03:20:57.747Z,7.07
2019-01-16T03:23:40.725Z,7.01
2019-01-16T03:26:29.351Z,6.98
2019-01-16T03:29:05.846Z,6.99
2019-01-16T03:31:45.184Z,7.00
2019-01-16T03:34:32.011Z,6.91
2019-01-16T03:37:05.388Z,6.93
2019-01-16T03:39:41.566Z,6.98
2019-01-16T03:42:11.976Z,6.91
2019-01-16T03:44:51.107Z,6.95
2019-01-16T03:47:21.537Z,6.91
2019-01-16T03:49:51.758Z,6.95
2019-01-16T03:52:24.538Z,7.04
2019-01-16T03:54:57.831Z,6.88
2019-01-16T03:57:33.996Z,6.93
2019-01-16T04:00:19.368Z,6.93
2019-01-16T04:02:52.560Z,6.93
2019-01-16T04:05:25.853Z,6.83
2019-01-16T04:08:12.052Z,6.86
2019-01-16T04:10:48.417Z,6.90
2019-01-16T04:13:18.842Z,6.95
2019-01-16T04:15:49.065Z,6.95
2019-01-16T04:18:22.318Z,6.87
2019-01-16T04:20:55.652Z,6.86
2019-01-16T04:23:37.961Z,6.91
2019-01-16T04:26:26.409Z,6.91
2019-01-16T04:29:13.523Z,6.94
2019-01-16T04:32:01.878Z,6.93
2019-01-16T04:34:48.374Z,6.91
2019-01-16T04:37:27.505Z,7.00
2019-01-16T04:40:06.841Z,7.08
2019-01-16T04:42:37.174Z,6.96
2019-01-16T04:45:08.820Z,6.96
2019-01-16T04:47:39.350Z,6.99
2019-01-16T04:50:26.570Z,6.91
2019-01-16T04:52:57.201Z,7.00
2019-01-16T04:55:30.700Z,7.06
2019-01-16T04:58:18.840Z,7.01
2019-01-16T05:01:03.910Z,6.99
2019-01-16T05:03:37.413Z,6.97
2019-01-16T05:06:10.609Z,7.00
2019-01-16T05:08:43.695Z,7.01
2019-01-16T05:11:26.201Z,7.04
2019-01-16T05:13:56.731Z,7.02
2019-01-16T05:16:38.934Z,6.98
2019-01-16T05:19:15.092Z,7.03
2019-01-16T05:21:57.466Z,7.03
2019-01-16T05:24:27.823Z,7.11
2019-01-16T05:27:07.160Z,7.03
2019-01-16T05:29:43.321Z,7.08
2019-01-16T05:32:25.214Z,7.08
2019-01-16T05:34:55.640Z,7.08
2019-01-16T05:37:41.019Z,7.05
2019-01-16T05:40:28.136Z,6.98
2019-01-16T05:43:04.554Z,7.00
2019-01-16T05:45:40.768Z,6.99
2019-01-16T05:48:19.691Z,7.02
2019-01-16T05:51:08.244Z,6.96
2019-01-16T05:53:47.275Z,6.88
2019-01-16T05:56:23.124Z,6.85
2019-01-16T05:59:02.665Z,6.91
2019-01-16T06:01:39.030Z,6.97
2019-01-16T06:04:09.358Z,7.00
2019-01-16T06:06:45.721Z,6.97
2019-01-16T06:09:17.181Z,6.93
2019-01-16T06:12:03.709Z,6.89
2019-01-16T06:14:33.999Z,6.91
2019-01-16T06:17:19.275Z,6.92
2019-01-16T06:19:54.014Z,6.90
2019-01-16T06:22:21.665Z,6.87
2019-01-16T06:25:08.281Z,6.92
2019-01-16T06:27:38.698Z,6.99
2019-01-16T06:30:12.302Z,6.93
2019-01-16T06:32:51.734Z,6.94
2019-01-16T06:35:30.966Z,6.87
2019-01-16T06:38:07.539Z,6.85
2019-01-16T06:40:37.968Z,6.81
2019-01-16T06:43:08.391Z,6.78
2019-01-16T06:45:38.819Z,6.79
2019-01-16T06:48:09.245Z,6.75
2019-01-16T06:50:39.465Z,6.78
2019-01-16T06:53:12.761Z,6.75
2019-01-16T06:55:58.036Z,6.73
2019-01-16T06:58:33.991Z,6.79
2019-01-16T07:01:19.675Z,6.77
2019-01-16T07:03:52.606Z,6.76
2019-01-16T07:06:22.885Z,6.78
2019-01-16T07:09:09.694Z,6.72
2019-01-16T07:11:42.987Z,6.72
2019-01-16T07:14:28.671Z,6.73
2019-01-16T07:17:15.150Z,6.73
2019-01-16T07:19:57.201Z,6.73
2019-01-16T07:22:27.468Z,6.69
2019-01-16T07:25:12.682Z,6.80
2019-01-16T07:27:58.824Z,6.74
2019-01-16T07:30:41.474Z,6.65
2019-01-16T07:33:30.127Z,6.71
2019-01-16T07:36:09.336Z,6.87
2019-01-16T07:38:42.531Z,6.74
2019-01-16T07:41:24.414Z,6.70
2019-01-16T07:43:57.501Z,6.84
2019-01-16T07:46:43.911Z,6.84
2019-01-16T07:49:20.004Z,6.74
2019-01-16T07:52:06.466Z,6.80
2019-01-16T07:54:53.432Z,6.76
2019-01-16T07:57:23.683Z,6.75
2019-01-16T07:59:59.603Z,6.74
2019-01-16T08:02:32.535Z,6.71
2019-01-16T08:05:11.928Z,6.83
2019-01-16T08:07:48.091Z,6.85
2019-01-16T08:10:30.485Z,6.86
2019-01-16T08:13:16.908Z,6.85
2019-01-16T08:15:56.214Z,6.83
2019-01-16T08:18:29.225Z,6.77
2019-01-16T08:21:11.317Z,6.84
2019-01-16T08:23:41.552Z,6.88
2019-01-16T08:26:14.500Z,6.85
2019-01-16T08:28:50.658Z,6.88
2019-01-16T08:31:29.635Z,6.85
2019-01-16T08:34:05.840Z,6.94
2019-01-16T08:36:36.130Z,6.98
2019-01-16T08:39:15.030Z,6.85
2019-01-16T08:41:51.441Z,6.86
2019-01-16T08:44:21.689Z,6.91
2019-01-16T08:46:51.896Z,6.96
2019-01-16T08:49:37.428Z,6.94
2019-01-16T08:52:19.978Z,6.91
2019-01-16T08:54:53.185Z,6.88
2019-01-16T08:57:23.412Z,6.85
2019-01-16T08:59:53.684Z,6.96
2019-01-16T09:02:29.633Z,6.97
2019-01-16T09:05:08.672Z,6.97
2019-01-16T09:07:38.958Z,6.98
2019-01-16T09:10:11.819Z,7.08
2019-01-16T09:12:48.003Z,7.02
2019-01-16T09:15:24.012Z,6.93
2019-01-16T09:17:54.270Z,7.09
2019-01-16T09:20:30.287Z,6.98
2019-01-16T09:23:00.561Z,7.04
2019-01-16T09:25:39.298Z,7.06
2019-01-16T09:28:09.585Z,7.08
2019-01-16T09:30:39.802Z,7.10
2019-01-16T09:33:15.792Z,7.07
2019-01-16T09:35:48.454Z,7.08
2019-01-16T09:38:24.661Z,7.06
2019-01-16T09:40:54.894Z,6.84
2019-01-16T09:43:25.086Z,6.85
2019-01-16T09:46:11.765Z,6.80
2019-01-16T09:48:58.152Z,7.03
2019-01-16T09:51:30.854Z,6.81
2019-01-16T09:54:01.086Z,6.86
2019-01-16T09:56:33.495Z,6.77
2019-01-16T09:59:20.345Z,6.86
2019-01-16T10:02:07.001Z,6.81
2019-01-16T10:04:53.089Z,6.83
2019-01-16T10:07:41.710Z,6.81
2019-01-16T10:10:31.299Z,6.85
2019-01-16T10:13:01.725Z,6.81
2019-01-16T10:15:34.813Z,6.86
2019-01-16T10:18:05.093Z,6.86
2019-01-16T10:20:35.356Z,6.83
2019-01-16T10:23:14.645Z,6.79
2019-01-16T10:25:50.644Z,6.85
2019-01-16T10:28:23.836Z,6.83
2019-01-16T10:30:56.935Z,6.77
2019-01-16T10:33:39.137Z,6.84
2019-01-16T10:36:09.510Z,6.88
2019-01-16T10:38:39.698Z,6.80
2019-01-16T10:41:21.933Z,6.67
2019-01-16T10:43:58.398Z,6.96
2019-01-16T10:46:45.007Z,6.90
2019-01-16T10:49:15.246Z,6.89
2019-01-16T10:51:54.165Z,6.88
2019-01-16T10:54:39.704Z,6.88
2019-01-16T10:57:21.915Z,6.87
2019-01-16T10:59:58.109Z,6.94
2019-01-16T11:02:31.051Z,6.83
2019-01-16T11:05:01.381Z,6.97
2019-01-16T11:07:43.581Z,6.93
2019-01-16T11:10:17.254Z,7.07
2019-01-16T11:12:53.717Z,7.11
2019-01-16T11:15:23.980Z,7.16
2019-01-16T11:17:54.195Z,7.26
2019-01-16T11:20:27.435Z,7.15
2019-01-16T11:23:13.595Z,7.24
2019-01-16T11:25:43.850Z,7.32
2019-01-16T11:28:30.197Z,7.41
2019-01-16T11:31:00.527Z,7.36
2019-01-16T11:33:36.658Z,7.38
2019-01-16T11:36:07.537Z,7.39
2019-01-16T11:38:54.195Z,7.29
2019-01-16T11:41:30.505Z,7.38
2019-01-16T11:44:15.994Z,7.43
2019-01-16T11:46:49.208Z,7.42
2019-01-16T11:49:35.827Z,7.55
2019-01-16T11:52:06.127Z,7.48
2019-01-16T11:54:42.059Z,7.50
2019-01-16T11:57:21.470Z,7.41
2019-01-16T11:59:54.219Z,7.47
2019-01-16T12:02:38.477Z,7.48
2019-01-16T12:05:26.908Z,7.51
2019-01-16T12:07:57.190Z,7.37
2019-01-16T12:10:31.709Z,7.37
2019-01-16T12:13:05.145Z,7.40
2019-01-16T12:15:41.179Z,7.53
2019-01-16T12:18:11.719Z,7.45
2019-01-16T12:20:41.936Z,7.52
2019-01-16T12:23:13.896Z,7.38
2019-01-16T12:25:49.846Z,7.44
2019-01-16T12:28:20.223Z,7.46
2019-01-16T12:30:51.538Z,7.37
2019-01-16T12:33:21.780Z,7.48
2019-01-16T12:35:51.980Z,7.48
2019-01-16T12:38:22.260Z,7.46
2019-01-16T12:41:04.707Z,7.44
2019-01-16T12:43:34.996Z,7.49
2019-01-16T12:46:05.298Z,7.35
2019-01-16T12:48:52.143Z,7.32
2019-01-16T12:51:33.751Z,7.54
2019-01-16T12:54:05.703Z,7.37
2019-01-16T12:56:44.847Z,7.39
2019-01-16T12:59:18.206Z,7.45
2019-01-16T13:01:54.040Z,7.42
2019-01-16T13:04:24.755Z,7.42
2019-01-16T13:07:13.248Z,7.48
2019-01-16T13:09:49.716Z,7.48
2019-01-16T13:12:20.040Z,7.42
2019-01-16T13:14:50.367Z,7.49
2019-01-16T13:17:20.688Z,7.46
2019-01-16T13:20:08.929Z,7.42
2019-01-16T13:22:39.235Z,7.51
2019-01-16T13:25:21.742Z,7.40
2019-01-16T13:27:57.891Z,7.47
2019-01-16T13:30:28.139Z,7.48
2019-01-16T13:33:14.772Z,7.48
2019-01-16T13:35:51.116Z,7.40
2019-01-16T13:38:38.035Z,7.39
2019-01-16T13:41:14.605Z,7.43
2019-01-16T13:43:50.791Z,7.48
2019-01-16T13:46:23.811Z,7.38
2019-01-16T13:48:56.991Z,7.45
2019-01-16T13:51:46.326Z,7.41
2019-01-16T13:54:20.332Z,7.36
2019-01-16T13:57:02.368Z,7.51
2019-01-16T13:59:38.385Z,7.41
2019-01-16T14:02:11.364Z,7.45
2019-01-16T14:04:41.620Z,7.31
2019-01-16T14:07:17.750Z,7.44
2019-01-16T14:09:57.283Z,7.30
2019-01-16T14:12:27.560Z,7.30
2019-01-16T14:15:03.454Z,7.28
2019-01-16T14:17:49.851Z,7.21
2019-01-16T14:20:35.028Z,7.22
2019-01-16T14:23:05.434Z,7.22
2019-01-16T14:25:44.385Z,7.21
2019-01-16T14:28:26.864Z,7.22
2019-01-16T14:31:03.008Z,7.13
2019-01-16T14:33:49.520Z,7.16
2019-01-16T14:36:22.509Z,7.11
2019-01-16T14:39:11.057Z,7.18
2019-01-16T14:41:43.994Z,7.12
2019-01-16T14:44:20.344Z,7.12
2019-01-16T14:47:05.487Z,7.01
2019-01-16T14:49:50.945Z,7.07
2019-01-16T14:52:37.628Z,7.00
2019-01-16T14:55:26.913Z,7.00
2019-01-16T14:57:57.579Z,6.98
2019-01-16T15:00:30.622Z,7.01
2019-01-16T15:03:18.775Z,6.92
2019-01-16T15:06:01.062Z,6.94
2019-01-16T15:08:31.325Z,6.99
2019-01-16T15:11:01.586Z,6.98
2019-01-16T15:13:38.068Z,6.96
2019-01-16T15:16:17.487Z,6.97
2019-01-16T15:18:56.406Z,6.92
2019-01-16T15:21:35.614Z,6.90
2019-01-16T15:24:05.933Z,6.93
2019-01-16T15:26:36.123Z,6.93
2019-01-16T15:29:06.479Z,6.87
2019-01-16T15:31:39.637Z,6.87
2019-01-16T15:34:09.908Z,6.89
2019-01-16T15:36:40.111Z,6.86
2019-01-16T15:39:12.302Z,6.87
2019-01-16T15:41:45.089Z,6.87
2019-01-16T15:44:15.320Z,6.83
2019-01-16T15:46:47.316Z,6.81
2019-01-16T15:49:20.704Z,6.80
2019-01-16T15:51:51.009Z,6.79
2019-01-16T15:54:37.565Z,6.78
2019-01-16T15:57:07.811Z,6.74
2019-01-16T15:59:38.027Z,6.78
2019-01-16T16:02:26.415Z,6.76
2019-01-16T16:05:11.885Z,6.74
2019-01-16T16:07:42.185Z,6.68
2019-01-16T16:10:21.910Z,6.65
2019-01-16T16:12:55.086Z,6.65
2019-01-16T16:15:41.539Z,6.61
2019-01-16T16:18:21.081Z,6.63
2019-01-16T16:20:56.846Z,6.62
2019-01-16T16:23:39.014Z,6.61
2019-01-16T16:26:09.279Z,6.56
2019-01-16T16:28:42.340Z,6.58
2019-01-16T16:31:15.491Z,6.58
2019-01-16T16:34:03.709Z,6.56
2019-01-16T16:36:50.351Z,6.58
2019-01-16T16:39:29.253Z,6.59
2019-01-16T16:42:08.081Z,6.60
2019-01-16T16:44:56.495Z,6.58
2019-01-16T16:47:38.491Z,6.53
2019-01-16T16:50:11.318Z,6.52
2019-01-16T16:52:44.572Z,6.56
2019-01-16T16:55:14.824Z,6.44
2019-01-16T16:58:01.405Z,6.52
2019-01-16T17:00:34.469Z,6.53
2019-01-16T17:03:04.723Z,6.55
2019-01-16T17:05:37.355Z,6.51
2019-01-16T17:08:07.595Z,6.47
2019-01-16T17:10:37.815Z,6.43
2019-01-16T17:13:11.347Z,6.35
2019-01-16T17:15:44.437Z,6.34
2019-01-16T17:18:14.666Z,6.37
2019-01-16T17:20:47.416Z,6.37
2019-01-16T17:23:34.108Z,6.40
2019-01-16T17:26:04.418Z,6.37
2019-01-16T17:28:43.362Z,6.26
2019-01-16T17:31:16.272Z,6.28
2019-01-16T17:33:55.564Z,6.32
2019-01-16T17:36:25.882Z,6.32
2019-01-16T17:38:58.941Z,6.27
2019-01-16T17:41:31.906Z,6.26
2019-01-16T17:44:18.556Z,6.28
2019-01-16T17:47:04.939Z,6.30
2019-01-16T17:49:37.836Z,6.26
2019-01-16T17:52:24.015Z,6.24
2019-01-16T17:55:00.233Z,6.25
2019-01-16T17:57:39.179Z,6.19
2019-01-16T18:00:28.539Z,6.15
2019-01-16T18:03:14.027Z,6.21
2019-01-16T18:05:56.640Z,6.26
2019-01-16T18:08:28.680Z,6.17
2019-01-16T18:10:58.863Z,6.16
2019-01-16T18:13:29.144Z,6.19
2019-01-16T18:16:15.734Z,6.16
2019-01-16T18:18:45.978Z,6.14
2019-01-16T18:21:21.941Z,6.14
2019-01-16T18:24:09.937Z,6.14
2019-01-16T18:26:40.229Z,6.10
2019-01-16T18:29:10.455Z,6.05
2019-01-16T18:31:40.699Z,6.09
2019-01-16T18:34:27.413Z,6.04
2019-01-16T18:37:00.536Z,6.12
2019-01-16T18:39:40.075Z,5.94
2019-01-16T18:42:19.515Z,5.95
2019-01-16T18:44:52.957Z,6.05
2019-01-16T18:47:25.873Z,6.04
2019-01-16T18:50:12.128Z,5.92
2019-01-16T18:52:51.760Z,5.92
2019-01-16T18:55:20.312Z,5.90
2019-01-16T18:57:53.408Z,6.00
2019-01-16T19:00:26.396Z,5.97
2019-01-16T19:02:56.822Z,5.94
2019-01-16T19:05:27.045Z,5.84
2019-01-16T19:08:12.424Z,5.88
2019-01-16T19:10:45.616Z,5.84
2019-01-16T19:13:21.676Z,5.74
2019-01-16T19:15:58.169Z,5.76
2019-01-16T19:18:40.221Z,5.80
2019-01-16T19:21:25.532Z,5.77
2019-01-16T19:23:55.844Z,5.72
2019-01-16T19:26:41.420Z,5.69
2019-01-16T19:29:11.845Z,5.68
2019-01-16T19:31:45.662Z,5.69
2019-01-16T19:34:15.976Z,5.60
2019-01-16T19:36:47.941Z,5.70
2019-01-16T19:39:24.206Z,5.66
2019-01-16T19:41:56.987Z,5.70
2019-01-16T19:44:42.071Z,5.61
2019-01-16T19:47:12.377Z,5.53
2019-01-16T19:49:51.276Z,5.60
2019-01-16T19:52:21.531Z,5.54
2019-01-16T19:55:08.410Z,5.63
2019-01-16T19:57:38.617Z,5.58
2019-01-16T20:00:11.996Z,5.62
2019-01-16T20:02:50.910Z,5.52
2019-01-16T20:05:32.879Z,5.57
2019-01-16T20:08:12.142Z,5.51
2019-01-16T20:10:45.399Z,5.47
2019-01-16T20:13:18.601Z,5.49
2019-01-16T20:15:54.387Z,5.48
2019-01-16T20:18:30.347Z,5.41
2019-01-16T20:21:12.264Z,5.42
2019-01-16T20:23:48.150Z,5.41
2019-01-16T20:26:18.436Z,5.29
2019-01-16T20:28:57.361Z,5.31
2019-01-16T20:31:33.123Z,5.28
2019-01-16T20:34:03.530Z,5.34
2019-01-16T20:36:36.532Z,5.26
2019-01-16T20:39:14.574Z,5.14
2019-01-16T20:41:47.794Z,5.26
2019-01-16T20:44:24.276Z,5.15
2019-01-16T20:47:00.567Z,5.14
2019-01-16T20:49:46.140Z,5.13
2019-01-16T20:52:16.460Z,5.11
2019-01-16T20:54:46.669Z,5.14
2019-01-16T20:57:16.910Z,5.13
2019-01-16T20:59:47.141Z,5.06
2019-01-16T21:02:26.440Z,5.02
2019-01-16T21:05:05.312Z,5.08
2019-01-16T21:07:38.322Z,5.00
2019-01-16T21:10:17.446Z,5.03
2019-01-16T21:12:50.641Z,5.01
2019-01-16T21:15:29.975Z,4.89
2019-01-16T21:18:12.576Z,4.87
2019-01-16T21:20:42.912Z,4.79
2019-01-16T21:23:14.043Z,4.75
2019-01-16T21:25:57.588Z,4.71
2019-01-16T21:28:27.910Z,4.73
2019-01-16T21:31:09.909Z,4.69
2019-01-16T21:33:48.894Z,4.61
2019-01-16T21:36:19.799Z,4.57
2019-01-16T21:38:49.997Z,4.55
2019-01-16T21:41:29.457Z,4.48
2019-01-16T21:44:15.949Z,4.45
2019-01-16T21:46:55.167Z,4.45
2019-01-16T21:49:28.559Z,4.33
2019-01-16T21:52:01.790Z,4.36
2019-01-16T21:54:44.261Z,4.34
2019-01-16T21:57:26.829Z,4.29
2019-01-16T22:00:09.042Z,4.29
2019-01-16T22:02:39.262Z,4.24
2019-01-16T22:05:10.554Z,4.25
2019-01-16T22:07:46.567Z,4.22
2019-01-16T22:10:19.482Z,4.16
2019-01-16T22:12:55.894Z,4.09
2019-01-16T22:15:42.378Z,4.05
2019-01-16T22:18:12.603Z,4.08
2019-01-16T22:20:52.106Z,3.97
2019-01-16T22:23:24.785Z,3.89
2019-01-16T22:25:57.924Z,3.90
2019-01-16T22:28:28.164Z,3.88
2019-01-16T22:31:13.287Z,3.82
2019-01-16T22:33:43.611Z,3.79
2019-01-16T22:36:17.007Z,3.79
2019-01-16T22:38:51.074Z,3.74
2019-01-16T22:41:21.498Z,3.66
2019-01-16T22:43:57.590Z,3.68
2019-01-16T22:46:27.837Z,3.63
2019-01-16T22:48:58.033Z,3.61
2019-01-16T22:51:28.264Z,3.58
2019-01-16T22:54:01.145Z,3.57
2019-01-16T22:56:31.433Z,3.57
2019-01-16T22:59:04.591Z,3.54
2019-01-16T23:01:49.660Z,3.53
2019-01-16T23:04:35.949Z,3.44
2019-01-16T23:07:06.367Z,3.49
2019-01-16T23:09:39.407Z,3.51
2019-01-16T23:12:26.065Z,3.44
2019-01-16T23:14:59.354Z,3.34
2019-01-16T23:17:38.495Z,3.32
2019-01-16T23:20:26.836Z,3.31
2019-01-16T23:23:02.949Z,3.29
2019-01-16T23:25:33.223Z,3.27
2019-01-16T23:28:03.488Z,3.24
2019-01-16T23:30:48.707Z,3.25
2019-01-16T23:33:18.925Z,3.24
2019-01-16T23:35:49.160Z,3.21
2019-01-16T23:38:19.373Z,3.16
2019-01-16T23:41:04.345Z,3.19
2019-01-16T23:43:43.134Z,3.15
2019-01-16T23:46:16.084Z,3.14
2019-01-16T23:48:56.986Z,3.15
2019-01-16T23:51:39.519Z,3.14
2019-01-16T23:54:18.959Z,3.11
2019-01-16T23:56:54.709Z,3.10
2019-01-16T23:59:37.017Z,3.05
